createdAt,value
2019-02-12T00:01:51.453Z,1.48
2019-02-12T00:04:39.367Z,1.54
2019-02-12T00:07:26.973Z,1.45
2019-02-12T00:10:14.989Z,1.38
2019-02-12T00:13:02.570Z,1.53
2019-02-12T00:15:50.329Z,1.70
2019-02-12T00:18:38.423Z,1.70
2019-02-12T00:21:26.409Z,1.63
2019-02-12T00:24:14.380Z,1.89
2019-02-12T00:27:01.935Z,1.90
2019-02-12T00:29:50.098Z,1.75
2019-02-12T00:32:38.055Z,1.69
2019-02-12T00:35:25.818Z,1.81
2019-02-12T00:38:13.888Z,1.84
2019-02-12T00:41:02.010Z,1.62
2019-02-12T00:43:50.049Z,1.83
2019-02-12T00:46:37.773Z,1.75
2019-02-12T00:49:25.311Z,1.76
2019-02-12T00:52:13.634Z,1.63
2019-02-12T00:55:02.030Z,1.46
2019-02-12T00:57:49.846Z,1.60
2019-02-12T01:00:37.681Z,1.45
2019-02-12T01:03:25.310Z,1.54
2019-02-12T01:06:13.670Z,1.48
2019-02-12T01:09:01.520Z,1.63
2019-02-12T01:11:49.321Z,1.63
2019-02-12T01:14:37.569Z,1.55
2019-02-12T01:17:25.878Z,1.57
2019-02-12T01:20:14.570Z,1.45
2019-02-12T01:23:02.267Z,1.51
2019-02-12T01:25:50.200Z,1.31
2019-02-12T01:28:38.214Z,1.34
2019-02-12T01:31:26.107Z,1.31
2019-02-12T01:34:14.434Z,1.48
2019-02-12T01:37:02.321Z,1.44
2019-02-12T01:39:49.990Z,1.69
2019-02-12T01:42:38.340Z,1.66
2019-02-12T01:45:26.172Z,1.54
2019-02-12T01:48:13.825Z,1.43
2019-02-12T01:51:01.792Z,1.54
2019-02-12T01:53:49.778Z,1.71
2019-02-12T01:56:37.668Z,1.87
2019-02-12T01:59:25.871Z,1.91
2019-02-12T02:02:13.826Z,1.83
2019-02-12T02:05:02.015Z,1.57
2019-02-12T02:07:49.631Z,1.60
2019-02-12T02:10:39.090Z,1.77
2019-02-12T02:13:27.331Z,1.87
2019-02-12T02:16:15.563Z,1.75
2019-02-12T02:19:03.065Z,1.84
2019-02-12T02:21:50.896Z,1.75
2019-02-12T02:24:38.441Z,1.78
2019-02-12T02:27:26.076Z,1.78
2019-02-12T02:30:14.625Z,1.58
2019-02-12T02:33:02.811Z,1.58
2019-02-12T02:35:50.951Z,1.74
2019-02-12T02:38:38.954Z,1.68
2019-02-12T02:41:26.824Z,1.77
2019-02-12T02:44:14.720Z,1.56
2019-02-12T02:47:02.669Z,1.39
2019-02-12T02:49:50.630Z,1.66
2019-02-12T02:52:38.058Z,1.67
2019-02-12T02:55:26.189Z,1.32
2019-02-12T02:58:13.859Z,1.30
2019-02-12T03:01:01.882Z,1.36
2019-02-12T03:03:49.630Z,1.35
2019-02-12T03:06:37.179Z,1.29
2019-02-12T03:09:25.162Z,1.32
2019-02-12T03:12:13.414Z,1.14
2019-02-12T03:15:00.849Z,1.52
2019-02-12T03:17:48.665Z,1.20
2019-02-12T03:20:36.506Z,1.40
2019-02-12T03:23:24.366Z,1.38
2019-02-12T03:26:12.536Z,1.74
2019-02-12T03:29:00.454Z,1.62
2019-02-12T03:31:48.093Z,1.22
2019-02-12T03:34:36.353Z,1.38
2019-02-12T03:37:24.405Z,1.30
2019-02-12T03:40:12.880Z,1.28
2019-02-12T03:43:00.524Z,1.60
2019-02-12T03:45:48.687Z,1.49
2019-02-12T03:48:36.799Z,1.67
2019-02-12T03:51:25.025Z,1.32
2019-02-12T03:54:12.968Z,1.48
2019-02-12T03:57:01.198Z,1.57
2019-02-12T03:59:49.072Z,1.67
2019-02-12T04:02:36.896Z,1.87
2019-02-12T04:05:25.472Z,1.82
2019-02-12T04:08:13.757Z,1.90
2019-02-12T04:11:01.598Z,1.88
2019-02-12T04:13:49.463Z,1.97
2019-02-12T04:16:37.349Z,1.84
2019-02-12T04:19:25.735Z,1.82
2019-02-12T04:22:21.921Z,1.65
2019-02-12T04:25:02.999Z,1.41
2019-02-12T04:27:52.264Z,1.44
2019-02-12T04:30:39.985Z,1.28
2019-02-12T04:33:27.928Z,1.81
2019-02-12T04:36:15.567Z,1.65
2019-02-12T04:39:04.049Z,1.65
2019-02-12T04:41:52.349Z,1.50
2019-02-12T04:44:40.047Z,1.48
2019-02-12T04:47:28.128Z,1.42
2019-02-12T04:50:16.097Z,1.48
2019-02-12T04:53:03.931Z,1.49
2019-02-12T04:55:51.905Z,1.42
2019-02-12T04:58:39.684Z,1.45
2019-02-12T05:01:27.799Z,1.46
2019-02-12T05:04:15.373Z,1.50
2019-02-12T05:07:03.706Z,1.44
2019-02-12T05:09:53.553Z,1.38
2019-02-12T05:12:41.157Z,1.40
2019-02-12T05:15:29.325Z,1.52
2019-02-12T05:18:17.108Z,1.73
2019-02-12T05:21:05.221Z,1.71
2019-02-12T05:23:53.372Z,1.46
2019-02-12T05:26:41.608Z,1.62
2019-02-12T05:29:29.633Z,1.68
2019-02-12T05:32:17.763Z,1.67
2019-02-12T05:35:05.876Z,1.75
2019-02-12T05:37:54.038Z,1.68
2019-02-12T05:40:42.150Z,1.73
2019-02-12T05:43:30.480Z,1.85
2019-02-12T05:46:18.674Z,1.65
2019-02-12T05:49:06.734Z,1.63
2019-02-12T05:51:54.934Z,1.88
2019-02-12T05:54:43.190Z,1.87
2019-02-12T05:57:31.226Z,1.89
2019-02-12T06:00:19.832Z,1.90
2019-02-12T06:03:07.871Z,1.73
2019-02-12T06:05:56.134Z,1.60
2019-02-12T06:08:43.965Z,1.51
2019-02-12T06:11:31.950Z,1.41
2019-02-12T06:14:19.586Z,1.34
2019-02-12T06:17:07.578Z,1.20
2019-02-12T06:19:55.706Z,1.19
2019-02-12T06:22:43.860Z,1.31
2019-02-12T06:25:32.367Z,1.37
2019-02-12T06:28:20.425Z,1.46
2019-02-12T06:31:08.369Z,1.51
2019-02-12T06:33:56.540Z,1.59
2019-02-12T06:36:44.662Z,1.48
2019-02-12T06:39:33.113Z,1.65
2019-02-12T06:42:21.353Z,1.56
2019-02-12T06:45:09.881Z,1.72
2019-02-12T06:47:57.696Z,1.75
2019-02-12T06:50:45.641Z,1.71
2019-02-12T06:53:33.930Z,1.82
2019-02-12T06:56:21.854Z,1.77
2019-02-12T06:59:09.632Z,1.79
2019-02-12T07:02:33.508Z,1.84
2019-02-12T07:05:21.423Z,2.04
2019-02-12T07:08:37.338Z,2.05
2019-02-12T07:12:08.201Z,1.93
2019-02-12T07:15:25.983Z,2.02
2019-02-12T07:18:49.823Z,2.09
2019-02-12T07:21:47.246Z,2.19
2019-02-12T07:24:52.014Z,2.32
2019-02-12T07:28:13.800Z,2.39
2019-02-12T07:31:34.581Z,2.55
2019-02-12T07:34:49.277Z,2.85
2019-02-12T07:38:12.001Z,3.04
2019-02-12T07:41:38.169Z,3.30
2019-02-12T07:45:13.553Z,3.94
2019-02-12T07:48:48.637Z,4.48
2019-02-12T07:52:32.347Z,4.89
2019-02-12T07:55:54.314Z,5.16
2019-02-12T07:59:10.210Z,5.45
2019-02-12T08:02:21.995Z,5.36
2019-02-12T08:05:56.046Z,5.53
2019-02-12T08:09:21.304Z,5.80
2019-02-12T08:12:32.868Z,6.24
2019-02-12T08:15:45.955Z,6.44
2019-02-12T08:19:04.870Z,6.64
2019-02-12T08:22:15.062Z,6.87
2019-02-12T08:25:29.259Z,7.46
2019-02-12T08:29:09.014Z,6.62
2019-02-12T08:32:41.470Z,6.34
2019-02-12T08:36:09.560Z,5.92
2019-02-12T08:39:32.268Z,5.71
2019-02-12T08:42:51.350Z,5.59
2019-02-12T08:46:16.502Z,5.49
2019-02-12T08:49:50.189Z,5.38
2019-02-12T08:53:16.239Z,5.35
2019-02-12T08:56:32.863Z,5.48
2019-02-12T09:00:15.306Z,5.33
2019-02-12T09:03:41.534Z,5.35
2019-02-12T09:07:09.995Z,5.03
2019-02-12T09:10:47.006Z,5.07
2019-02-12T09:14:14.637Z,5.24
2019-02-12T09:17:51.006Z,5.11
2019-02-12T09:21:06.725Z,4.82
2019-02-12T09:24:36.861Z,4.60
2019-02-12T09:28:26.605Z,4.79
2019-02-12T09:31:49.563Z,5.00
2019-02-12T09:35:05.350Z,5.18
2019-02-12T09:38:58.878Z,5.41
2019-02-12T09:42:09.015Z,5.64
2019-02-12T09:45:46.316Z,5.66
2019-02-12T09:48:47.137Z,5.48
2019-02-12T09:52:03.509Z,5.29
2019-02-12T09:55:27.523Z,4.86
2019-02-12T09:59:01.529Z,4.79
2019-02-12T10:02:27.710Z,4.60
2019-02-12T10:06:02.613Z,4.61
2019-02-12T10:09:17.188Z,4.95
2019-02-12T10:12:33.874Z,5.42
2019-02-12T10:15:51.004Z,5.55
2019-02-12T10:19:41.144Z,5.56
2019-02-12T10:23:16.251Z,5.58
2019-02-12T10:26:08.446Z,5.36
2019-02-12T10:29:27.465Z,5.15
2019-02-12T10:32:13.813Z,5.17
2019-02-12T10:35:01.511Z,5.54
2019-02-12T10:37:49.902Z,5.98
2019-02-12T10:40:37.679Z,6.17
2019-02-12T10:43:25.447Z,6.23
2019-02-12T10:46:13.024Z,6.46
2019-02-12T10:49:01.103Z,6.42
2019-02-12T10:51:49.080Z,6.62
2019-02-12T10:54:36.971Z,6.86
2019-02-12T10:57:24.985Z,6.92
2019-02-12T11:00:13.675Z,7.05
2019-02-12T11:03:01.689Z,7.26
2019-02-12T11:05:49.807Z,6.88
2019-02-12T11:08:37.998Z,6.78
2019-02-12T11:11:26.031Z,6.67
2019-02-12T11:14:14.487Z,6.82
2019-02-12T11:17:01.966Z,7.05
2019-02-12T11:19:50.256Z,6.98
2019-02-12T11:22:38.340Z,6.89
2019-02-12T11:25:26.376Z,7.08
2019-02-12T11:28:14.381Z,7.11
2019-02-12T11:31:01.986Z,7.64
2019-02-12T11:33:50.064Z,7.80
2019-02-12T11:36:38.265Z,7.83
2019-02-12T11:39:26.472Z,7.59
2019-02-12T11:42:14.720Z,7.84
2019-02-12T11:45:02.757Z,7.88
2019-02-12T11:47:50.967Z,7.67
2019-02-12T11:50:38.840Z,7.66
2019-02-12T11:53:28.060Z,7.33
2019-02-12T11:56:16.051Z,7.23
2019-02-12T11:59:03.988Z,7.17
2019-02-12T12:01:52.132Z,7.43
2019-02-12T12:04:39.955Z,7.11
2019-02-12T12:07:27.398Z,7.36
2019-02-12T12:10:15.877Z,7.28
2019-02-12T12:13:03.469Z,7.22
2019-02-12T12:15:51.002Z,6.77
2019-02-12T12:18:39.063Z,6.62
2019-02-12T12:21:26.843Z,6.35
2019-02-12T12:24:15.031Z,6.47
2019-02-12T12:27:02.887Z,6.84
2019-02-12T12:29:51.058Z,6.77
2019-02-12T12:32:39.058Z,7.21
2019-02-12T12:35:26.988Z,7.50
2019-02-12T12:38:15.088Z,7.57
2019-02-12T12:41:03.050Z,7.68
2019-02-12T12:43:51.477Z,7.68
2019-02-12T12:46:39.636Z,7.84
2019-02-12T12:49:27.457Z,7.99
2019-02-12T12:52:15.489Z,7.92
2019-02-12T12:55:03.069Z,7.53
2019-02-12T12:57:51.167Z,7.51
2019-02-12T13:00:38.737Z,7.37
2019-02-12T13:03:26.956Z,7.58
2019-02-12T13:06:15.065Z,7.52
2019-02-12T13:09:04.326Z,7.03
2019-02-12T13:11:52.479Z,6.83
2019-02-12T13:14:40.468Z,6.78
2019-02-12T13:17:28.352Z,6.59
2019-02-12T13:20:16.659Z,6.62
2019-02-12T13:23:04.579Z,6.87
2019-02-12T13:25:52.791Z,6.74
2019-02-12T13:28:40.738Z,6.27
2019-02-12T13:31:28.887Z,6.38
2019-02-12T13:34:17.195Z,6.34
2019-02-12T13:37:04.985Z,6.49
2019-02-12T13:39:53.171Z,6.67
2019-02-12T13:42:41.678Z,6.87
2019-02-12T13:45:29.982Z,6.92
2019-02-12T13:48:18.547Z,7.00
2019-02-12T13:51:06.572Z,7.04
2019-02-12T13:53:54.654Z,7.04
2019-02-12T13:56:42.737Z,6.88
2019-02-12T13:59:30.770Z,6.56
2019-02-12T14:02:18.366Z,6.70
2019-02-12T14:05:08.158Z,6.65
2019-02-12T14:07:55.953Z,6.74
2019-02-12T14:10:43.916Z,6.75
2019-02-12T14:13:31.630Z,6.79
2019-02-12T14:16:19.788Z,6.74
2019-02-12T14:19:07.936Z,6.73
2019-02-12T14:21:55.881Z,6.77
2019-02-12T14:24:43.504Z,6.92
2019-02-12T14:27:31.445Z,7.04
2019-02-12T14:30:19.491Z,6.70
2019-02-12T14:33:07.682Z,6.90
2019-02-12T14:35:55.739Z,6.93
2019-02-12T14:38:43.671Z,6.69
2019-02-12T14:41:32.077Z,6.48
2019-02-12T14:44:19.874Z,6.30
2019-02-12T14:47:07.823Z,6.29
2019-02-12T14:49:55.835Z,6.33
2019-02-12T14:52:44.019Z,6.53
2019-02-12T14:55:33.939Z,6.69
2019-02-12T14:58:21.968Z,6.55
2019-02-12T15:01:10.183Z,6.64
2019-02-12T15:03:58.083Z,6.55
2019-02-12T15:06:46.120Z,6.47
2019-02-12T15:09:34.269Z,6.36
2019-02-12T15:12:22.229Z,6.06
2019-02-12T15:15:10.472Z,5.91
2019-02-12T15:17:58.734Z,5.99
2019-02-12T15:20:46.435Z,6.13
2019-02-12T15:23:34.210Z,6.00
2019-02-12T15:26:22.198Z,5.85
2019-02-12T15:29:10.338Z,5.83
2019-02-12T15:31:57.873Z,5.90
2019-02-12T15:34:45.979Z,5.79
2019-02-12T15:37:34.149Z,5.52
2019-02-12T15:40:22.231Z,5.29
2019-02-12T15:43:09.967Z,5.10
2019-02-12T15:45:57.878Z,5.32
2019-02-12T15:48:45.730Z,5.33
2019-02-12T15:51:33.896Z,5.26
2019-02-12T15:54:21.996Z,5.24
2019-02-12T15:57:10.497Z,5.35
2019-02-12T15:59:58.414Z,5.08
2019-02-12T16:02:46.458Z,4.84
2019-02-12T16:05:34.872Z,4.60
2019-02-12T16:08:22.968Z,4.80
2019-02-12T16:11:11.180Z,4.77
2019-02-12T16:13:59.402Z,4.60
2019-02-12T16:16:47.126Z,4.71
2019-02-12T16:19:34.789Z,4.51
2019-02-12T16:22:22.669Z,4.63
2019-02-12T16:25:11.731Z,4.33
2019-02-12T16:27:59.350Z,4.19
2019-02-12T16:30:47.384Z,4.19
2019-02-12T16:33:35.198Z,4.17
2019-02-12T16:36:23.044Z,4.18
2019-02-12T16:39:11.175Z,3.99
2019-02-12T16:41:58.722Z,4.03
2019-02-12T16:44:46.926Z,4.03
2019-02-12T16:47:35.325Z,4.02
2019-02-12T16:50:23.653Z,3.95
2019-02-12T16:53:11.693Z,3.78
2019-02-12T16:56:07.929Z,3.63
2019-02-12T16:58:50.086Z,3.97
2019-02-12T17:01:38.069Z,3.82
2019-02-12T17:04:26.215Z,3.86
2019-02-12T17:07:14.869Z,4.05
2019-02-12T17:10:02.874Z,4.16
2019-02-12T17:12:50.929Z,3.97
2019-02-12T17:15:38.733Z,4.07
2019-02-12T17:18:26.913Z,3.87
2019-02-12T17:21:15.478Z,3.77
2019-02-12T17:24:03.375Z,3.62
2019-02-12T17:26:51.381Z,3.57
2019-02-12T17:29:39.267Z,3.54
2019-02-12T17:32:27.179Z,3.52
2019-02-12T17:35:15.554Z,3.36
2019-02-12T17:38:03.800Z,3.27
2019-02-12T17:40:51.648Z,3.29
2019-02-12T17:43:39.628Z,3.31
2019-02-12T17:46:27.581Z,3.17
2019-02-12T17:49:15.813Z,3.12
2019-02-12T17:52:03.337Z,3.05
2019-02-12T17:54:51.503Z,3.12
2019-02-12T17:57:39.848Z,3.04
2019-02-12T18:00:31.593Z,3.02
2019-02-12T18:03:19.635Z,3.02
2019-02-12T18:06:07.178Z,3.02
2019-02-12T18:08:54.775Z,2.98
2019-02-12T18:11:42.630Z,2.77
2019-02-12T18:14:30.672Z,2.72
2019-02-12T18:17:18.708Z,2.82
2019-02-12T18:20:07.135Z,2.74
2019-02-12T18:22:55.166Z,2.62
2019-02-12T18:25:43.280Z,2.67
2019-02-12T18:28:31.315Z,2.64
2019-02-12T18:31:19.804Z,2.60
2019-02-12T18:34:07.639Z,2.55
2019-02-12T18:36:55.654Z,2.49
2019-02-12T18:39:43.138Z,2.48
2019-02-12T18:42:31.397Z,2.35
2019-02-12T18:45:19.567Z,2.39
2019-02-12T18:48:07.894Z,2.39
2019-02-12T18:50:55.418Z,2.26
2019-02-12T18:53:43.282Z,2.32
2019-02-12T18:56:30.952Z,2.31
2019-02-12T18:59:19.078Z,2.18
2019-02-12T19:02:06.870Z,2.16
2019-02-12T19:04:54.730Z,2.11
2019-02-12T19:07:42.979Z,2.15
2019-02-12T19:10:31.386Z,2.06
2019-02-12T19:13:19.449Z,2.20
2019-02-12T19:16:07.382Z,2.11
2019-02-12T19:18:55.447Z,2.09
2019-02-12T19:21:43.637Z,2.04
2019-02-12T19:24:31.697Z,1.99
2019-02-12T19:27:20.232Z,2.10
2019-02-12T19:30:09.112Z,2.06
2019-02-12T19:32:56.970Z,2.04
2019-02-12T19:35:45.285Z,2.08
2019-02-12T19:38:33.069Z,2.07
2019-02-12T19:41:21.241Z,1.97
2019-02-12T19:44:09.460Z,1.92
2019-02-12T19:46:57.757Z,1.95
2019-02-12T19:49:45.541Z,1.79
2019-02-12T19:52:33.844Z,1.71
2019-02-12T19:55:21.993Z,1.82
2019-02-12T19:58:10.222Z,1.82
2019-02-12T20:00:58.042Z,1.92
2019-02-12T20:03:46.074Z,1.87
2019-02-12T20:06:33.851Z,1.95
2019-02-12T20:09:22.732Z,1.99
2019-02-12T20:12:10.511Z,1.89
2019-02-12T20:14:58.741Z,2.00
2019-02-12T20:17:47.000Z,1.87
2019-02-12T20:20:35.140Z,1.90
2019-02-12T20:23:23.197Z,1.85
2019-02-12T20:26:11.036Z,1.84
2019-02-12T20:28:59.083Z,1.93
2019-02-12T20:31:47.327Z,1.99
2019-02-12T20:34:35.469Z,1.94
2019-02-12T20:37:24.923Z,1.95
2019-02-12T20:40:13.334Z,1.97
2019-02-12T20:43:02.343Z,1.92
2019-02-12T20:45:50.725Z,1.92
2019-02-12T20:48:38.601Z,1.79
2019-02-12T20:51:27.058Z,1.74
2019-02-12T20:54:15.462Z,1.74
2019-02-12T20:57:03.676Z,1.69
2019-02-12T20:59:51.972Z,1.56
2019-02-12T21:02:40.050Z,1.72
2019-02-12T21:05:28.560Z,1.50
2019-02-12T21:08:16.651Z,1.59
2019-02-12T21:11:04.617Z,1.52
2019-02-12T21:13:52.164Z,1.50
2019-02-12T21:16:39.900Z,1.45
2019-02-12T21:19:28.150Z,1.41
2019-02-12T21:22:16.440Z,1.40
2019-02-12T21:25:04.350Z,1.49
2019-02-12T21:27:52.164Z,1.49
2019-02-12T21:30:40.017Z,1.47
2019-02-12T21:33:28.263Z,1.46
2019-02-12T21:36:15.940Z,1.27
2019-02-12T21:39:04.637Z,1.37
2019-02-12T21:41:52.690Z,1.62
2019-02-12T21:44:41.047Z,1.62
2019-02-12T21:47:29.036Z,1.42
2019-02-12T21:50:16.885Z,1.43
2019-02-12T21:53:04.467Z,1.48
2019-02-12T21:55:52.908Z,1.32
2019-02-12T21:58:40.953Z,1.34
2019-02-12T22:01:28.874Z,1.15
2019-02-12T22:04:16.781Z,1.20
2019-02-12T22:07:05.169Z,1.40
2019-02-12T22:09:53.459Z,1.36
2019-02-12T22:12:41.397Z,1.34
2019-02-12T22:15:29.465Z,1.40
2019-02-12T22:18:17.554Z,1.40
2019-02-12T22:21:05.316Z,1.43
2019-02-12T22:23:53.329Z,1.28
2019-02-12T22:26:41.326Z,1.05
2019-02-12T22:29:29.556Z,1.05
2019-02-12T22:32:17.131Z,0.94
2019-02-12T22:35:05.480Z,0.72
2019-02-12T22:37:53.372Z,1.14
2019-02-12T22:40:41.163Z,1.01
2019-02-12T22:43:28.883Z,0.94
2019-02-12T22:46:16.512Z,0.82
2019-02-12T22:49:04.195Z,0.89
2019-02-12T22:51:52.534Z,0.94
2019-02-12T22:54:40.535Z,0.83
2019-02-12T22:57:28.708Z,0.86
2019-02-12T23:00:47.128Z,0.97
2019-02-12T23:03:36.583Z,0.91
2019-02-12T23:06:24.533Z,0.57
2019-02-12T23:09:19.012Z,0.54
2019-02-12T23:12:07.133Z,0.56
2019-02-12T23:14:55.402Z,0.60
2019-02-12T23:17:43.465Z,0.51
2019-02-12T23:20:31.769Z,0.47
2019-02-12T23:23:19.632Z,0.44
2019-02-12T23:26:09.083Z,0.47
2019-02-12T23:28:56.978Z,0.26
2019-02-12T23:31:45.240Z,0.46
2019-02-12T23:34:33.476Z,0.74
2019-02-12T23:37:21.633Z,0.34
2019-02-12T23:40:09.355Z,0.36
2019-02-12T23:42:57.197Z,0.56
2019-02-12T23:45:44.949Z,0.44
2019-02-12T23:48:32.509Z,0.57
2019-02-12T23:51:20.365Z,0.61
2019-02-12T23:54:08.316Z,0.52
2019-02-12T23:56:55.903Z,0.46
2019-02-12T23:59:44.078Z,0.32
